Flight Track Log - Related Links

Times and Time Zones

All times are in EDT time to prevent confusion due to time zone crossing. See the LOG6844 flight status page for this flight to view local times or setup timezone preferences in your user account.

Time Position Orientation Groundspeed Altitude Reporting Facility
EDT Latitude Longitude Course Direction KTS MPH feet Rate Location/Type
Fri 05:06:20 AM 55.4765 -5.5565 66° East 116 133 1,800  Level FlightAware UK
Fri 05:06:50 AM 55.4841 -5.5266 66° East 104 120 2,100 500 Climbing FlightAware UK
Fri 05:07:08 AM 55.4882 -5.5077 69° East 174 200 2,200 64 Climbing FlightAware UK
Fri 05:11:32 AM 55.5680 -5.2332 63° Northeast 142 163 2,400 38 Climbing FlightAware UK
Fri 05:12:20 AM 55.5797 -5.1772 70° East 130 150 2,400 77 Level FlightAware UK
Fri 05:12:50 AM 55.5948 -5.1515 44° Northeast 104 120 2,500 125 Climbing FlightAware UK
Fri 05:13:08 AM 55.6035 -5.1369 43° Northeast 174 200 2,500 53 Level FlightAware UK
Fri 05:14:44 AM 55.6532 -5.0717 37° Northeast 130 150 2,600 95 Climbing FlightAware UK
Fri 05:15:14 AM 55.6672 -5.0498 41° Northeast 104 120 2,700 111 Climbing FlightAware UK
Fri 05:15:38 AM 55.6793 -5.0330 38° Northeast 130 150 2,700  Level FlightAware UK
Fri 05:15:56 AM 55.6884 -5.0207 37° Northeast 174 200 2,700 167 Level FlightAware UK
Fri 05:16:14 AM 55.6976 -5.0087 36° Northeast 174 200 2,800 167 Climbing FlightAware UK
Fri 05:16:32 AM 55.7077 -4.9986 29° Northeast 174 200 2,800 -167 Level FlightAware UK
Fri 05:16:50 AM 55.7183 -4.9891 27° Northeast 174 200 2,700 -125 Descending FlightAware UK
Fri 05:17:20 AM 55.7361 -4.9735 26° Northeast 104 120 2,700  Level FlightAware UK
Fri 05:17:38 AM 55.7465 -4.9629 30° Northeast 174 200 2,700  Level FlightAware UK
Fri 05:17:56 AM 55.7572 -4.9526 29° Northeast 174 200 2,700 167 Level FlightAware UK
Fri 05:18:14 AM 55.7676 -4.9425 29° Northeast 174 200 2,800 167 Climbing FlightAware UK
Fri 05:18:32 AM 55.7778 -4.9323 29° Northeast 174 200 2,800  Level FlightAware UK
Fri 05:18:50 AM 55.7883 -4.9232 26° Northeast 174 200 2,800  Level FlightAware UK
Fri 05:19:08 AM 55.7988 -4.9137 27° Northeast 174 200 2,800  Level FlightAware UK
Fri 05:19:26 AM 55.8091 -4.9034 29° Northeast 174 200 2,800  Level FlightAware UK
Fri 05:19:44 AM 55.8194 -4.8927 30° Northeast 174 200 2,800  Level FlightAware UK
Fri 05:20:02 AM 55.8299 -4.8825 29° Northeast 174 200 2,800  Level FlightAware UK
Fri 05:20:20 AM 55.8380 -4.8671 47° Northeast 174 200 2,800 -167 Level FlightAware UK
Fri 05:20:38 AM 55.8433 -4.8468 65° Northeast 174 200 2,700 -333 Descending FlightAware UK
Fri 05:20:56 AM 55.8479 -4.8254 69° East 174 200 2,600 125 Descending FlightAware UK
Fri 05:21:26 AM 55.8543 -4.7897 72° East 104 120 2,800 100 Climbing FlightAware UK
Fri 05:21:56 AM 55.8613 -4.7545 70° East 104 120 2,700 -111 Descending FlightAware UK
Fri 05:22:20 AM 55.8669 -4.7266 70° East 130 150 2,700 -188 Level FlightAware UK
Fri 05:23:32 AM 55.8846 -4.6438 69° East 130 150 2,400 -192 Descending FlightAware UK
Fri 05:27:32 AM 55.9204 -4.5183 63° Northeast 65 75 1,700 -175 Descending FlightAware UK
Fri 05:31:00 AM 55.8719 -4.4331 136° Southeast  Level Estimated
Fri 05:38:00 AM 55.8719 -4.4331 North  Level Estimated
Fri 05:39:00 AM 55.8719 -4.4331 North  Level Estimated
Fri 05:40:00 AM 55.8719 -4.4331 North  Level Estimated
Fri 05:41:00 AM 55.8719 -4.4331 North  Level Estimated
Fri 05:42:00 AM 55.8719 -4.4331 North  Level Estimated

Login

Don't have an account? Register now (free) for customized features, flight alerts, and more!